Time;durP1;ratioP1;P1;durP2;ratioP2;P2;SDS_P1;SDS_P2;PMS_P1;PMS_P2;Temp;Humidity;BMP_temperature;BMP_pressure;BME280_temperature;BME280_humidity;BME280_pressure;Samples;Min_cycle;Max_cycle;Signal;HPM_P1;HPM_P2
2022/03/08 00:01:21;;;;;;;0.32;0.10;;;;;;;;;;4212138;28;20097;-65
2022/03/08 00:03:22;;;;;;;0.30;0.20;;;;;;;;;;4211828;28;20044;-65
2022/03/08 00:05:23;;;;;;;0.32;0.17;;;;;;;;;;4213614;28;20139;-65
2022/03/08 00:07:24;;;;;;;0.10;0.10;;;;;;;;;;4213170;28;20380;-65
2022/03/08 00:09:25;;;;;;;0.17;0.10;;;;;;;;;;4213224;28;20182;-65
2022/03/08 00:11:26;;;;;;;0.35;0.30;;;;;;;;;;4213571;28;20044;-65
2022/03/08 00:13:26;;;;;;;0.32;0.20;;;;;;;;;;4213091;28;20052;-64
2022/03/08 00:15:27;;;;;;;0.22;0.20;;;;;;;;;;4213240;28;20299;-64
2022/03/08 00:17:28;;;;;;;0.10;0.10;;;;;;;;;;4213102;28;20105;-65
2022/03/08 00:19:29;;;;;;;0.10;0.10;;;;;;;;;;4212072;28;20048;-64
2022/03/08 00:21:30;;;;;;;0.10;0.10;;;;;;;;;;4213400;28;20095;-64
2022/03/08 00:23:32;;;;;;;0.10;0.10;;;;;;;;;;4213180;28;20193;-64
2022/03/08 00:25:32;;;;;;;0.00;0.00;;;;;;;;;;4213075;28;20105;-65
2022/03/08 00:27:34;;;;;;;0.50;0.17;;;;;;;;;;4212916;28;20094;-64
2022/03/08 00:29:37;;;;;;;0.10;0.10;;;;;;;;;;4212039;28;20044;-64
2022/03/08 00:31:38;;;;;;;0.35;0.25;;;;;;;;;;4212957;28;20109;-65
2022/03/08 00:33:42;;;;;;;0.10;0.10;;;;;;;;;;4212934;28;20071;-65
2022/03/08 00:35:44;;;;;;;0.20;0.20;;;;;;;;;;4211899;28;20061;-65
2022/03/08 00:37:47;;;;;;;0.10;0.10;;;;;;;;;;4200262;28;20052;-65
2022/03/08 00:39:48;;;;;;;0.55;0.20;;;;;;;;;;4213113;28;20096;-65
2022/03/08 00:41:49;;;;;;;0.38;0.10;;;;;;;;;;4212800;28;20051;-65
2022/03/08 00:43:51;;;;;;;0.25;0.13;;;;;;;;;;4213046;28;20052;-65
2022/03/08 00:45:52;;;;;;;0.30;0.10;;;;;;;;;;4213003;28;20056;-65
2022/03/08 00:47:55;;;;;;;0.43;0.20;;;;;;;;;;4212545;28;20084;-65
2022/03/08 00:49:56;;;;;;;0.30;0.10;;;;;;;;;;4212853;28;20109;-64
2022/03/08 00:51:57;;;;;;;0.28;0.10;;;;;;;;;;4212784;28;20407;-65
2022/03/08 00:53:59;;;;;;;0.10;0.10;;;;;;;;;;4212843;28;20083;-65
2022/03/08 00:56:00;;;;;;;0.28;0.00;;;;;;;;;;4212647;28;20549;-65
2022/03/08 00:58:02;;;;;;;0.13;0.10;;;;;;;;;;4212895;28;20056;-65
2022/03/08 01:00:07;;;;;;;0.00;0.00;;;;;;;;;;4196602;28;20053;-64
2022/03/08 01:02:08;;;;;;;0.22;0.20;;;;;;;;;;4197736;28;20057;-65
2022/03/08 01:04:09;;;;;;;0.40;0.10;;;;;;;;;;4216154;28;20105;-65
2022/03/08 01:06:11;;;;;;;0.10;0.10;;;;;;;;;;4216103;28;20105;-65
2022/03/08 01:08:13;;;;;;;1.17;0.20;;;;;;;;;;4215894;28;20048;-64
2022/03/08 01:10:16;;;;;;;0.25;0.10;;;;;;;;;;4216113;28;20044;-64
2022/03/08 01:12:17;;;;;;;0.20;0.15;;;;;;;;;;4214686;28;20404;-64
2022/03/08 01:14:18;;;;;;;0.32;0.10;;;;;;;;;;4216071;28;20095;-64
2022/03/08 01:16:19;;;;;;;0.20;0.20;;;;;;;;;;4216202;28;20127;-65
2022/03/08 01:18:20;;;;;;;0.30;0.20;;;;;;;;;;4216173;28;20044;-64
2022/03/08 01:20:22;;;;;;;0.10;0.10;;;;;;;;;;4216078;28;20058;-65
2022/03/08 01:22:23;;;;;;;0.17;0.10;;;;;;;;;;4215997;28;20101;-65
2022/03/08 01:24:23;;;;;;;0.35;0.15;;;;;;;;;;4216140;28;20110;-65
2022/03/08 01:26:24;;;;;;;0.35;0.30;;;;;;;;;;4214637;28;20554;-64
2022/03/08 01:28:25;;;;;;;0.30;0.10;;;;;;;;;;4214600;28;20040;-64
2022/03/08 01:30:27;;;;;;;0.10;0.10;;;;;;;;;;4215972;28;20544;-65
2022/03/08 01:32:27;;;;;;;0.25;0.10;;;;;;;;;;4215361;28;20047;-65
2022/03/08 01:34:30;;;;;;;0.20;0.10;;;;;;;;;;4215632;28;20055;-64
2022/03/08 01:36:31;;;;;;;0.20;0.10;;;;;;;;;;4215744;28;20055;-64
2022/03/08 01:38:32;;;;;;;0.25;0.20;;;;;;;;;;4215495;28;20171;-65
2022/03/08 01:40:33;;;;;;;0.25;0.20;;;;;;;;;;4214450;28;20103;-65
2022/03/08 01:42:34;;;;;;;0.20;0.10;;;;;;;;;;4215503;28;20117;-65
2022/03/08 01:44:35;;;;;;;0.68;0.20;;;;;;;;;;4215677;28;20052;-65
2022/03/08 01:46:36;;;;;;;0.20;0.20;;;;;;;;;;4215687;28;20048;-64
2022/03/08 01:48:37;;;;;;;0.13;0.13;;;;;;;;;;4215227;28;20845;-64
2022/03/08 01:50:38;;;;;;;0.38;0.20;;;;;;;;;;4215557;28;20165;-65
2022/03/08 01:52:39;;;;;;;0.25;0.22;;;;;;;;;;4215237;28;20060;-65
2022/03/08 01:54:41;;;;;;;0.10;0.10;;;;;;;;;;4215758;28;20048;-65
2022/03/08 01:56:43;;;;;;;0.10;0.10;;;;;;;;;;4215422;28;20059;-64
2022/03/08 01:58:44;;;;;;;0.93;0.57;;;;;;;;;;4215313;28;20059;-65
2022/03/08 02:00:45;;;;;;;0.20;0.17;;;;;;;;;;4215164;28;20052;-65
2022/03/08 02:02:46;;;;;;;0.20;0.10;;;;;;;;;;4196796;28;20142;-65
2022/03/08 02:04:47;;;;;;;0.20;0.10;;;;;;;;;;4215258;28;20098;-66
2022/03/08 02:06:48;;;;;;;0.30;0.10;;;;;;;;;;4215064;28;20551;-65
2022/03/08 02:08:49;;;;;;;0.10;0.10;;;;;;;;;;4215100;28;20081;-64
2022/03/08 02:10:50;;;;;;;0.30;0.20;;;;;;;;;;4214804;28;20083;-65
2022/03/08 02:12:51;;;;;;;0.80;0.10;;;;;;;;;;4215273;28;20063;-65
2022/03/08 02:14:52;;;;;;;0.43;0.20;;;;;;;;;;4196931;28;20075;-65
2022/03/08 02:16:53;;;;;;;0.50;0.20;;;;;;;;;;4196535;28;20048;-64
2022/03/08 02:18:54;;;;;;;0.10;0.10;;;;;;;;;;4215350;28;20127;-64
2022/03/08 02:20:55;;;;;;;0.50;0.25;;;;;;;;;;4215189;28;20061;-64
2022/03/08 02:22:56;;;;;;;0.35;0.10;;;;;;;;;;4215185;28;20094;-64
2022/03/08 02:24:58;;;;;;;0.28;0.10;;;;;;;;;;4215328;28;20060;-64
2022/03/08 02:27:00;;;;;;;1.55;0.10;;;;;;;;;;4214899;28;20783;-64
2022/03/08 02:29:03;;;;;;;0.40;0.20;;;;;;;;;;4214783;28;20530;-65
2022/03/08 02:31:05;;;;;;;0.20;0.20;;;;;;;;;;4214799;28;20056;-65
2022/03/08 02:33:07;;;;;;;0.40;0.15;;;;;;;;;;4214428;28;20376;-65
2022/03/08 02:35:10;;;;;;;0.20;0.20;;;;;;;;;;4214654;28;20056;-64
2022/03/08 02:37:12;;;;;;;0.30;0.20;;;;;;;;;;4214415;28;20052;-65
2022/03/08 02:39:13;;;;;;;0.30;0.15;;;;;;;;;;4214775;28;20051;-64
2022/03/08 02:41:14;;;;;;;0.80;0.10;;;;;;;;;;4213525;28;20127;-64
2022/03/08 02:43:15;;;;;;;0.30;0.20;;;;;;;;;;4214733;28;20093;-65
2022/03/08 02:45:16;;;;;;;1.38;0.10;;;;;;;;;;4214589;28;20052;-65
2022/03/08 02:47:17;;;;;;;0.47;0.20;;;;;;;;;;4214439;28;20109;-64
2022/03/08 02:49:18;;;;;;;0.10;0.10;;;;;;;;;;4213463;28;20044;-65
2022/03/08 02:51:20;;;;;;;0.38;0.20;;;;;;;;;;4214742;28;20514;-64
2022/03/08 02:53:21;;;;;;;0.30;0.20;;;;;;;;;;4213000;28;20086;-64
2022/03/08 02:55:23;;;;;;;0.30;0.20;;;;;;;;;;4214733;28;20078;-64
2022/03/08 02:57:24;;;;;;;0.30;0.10;;;;;;;;;;4214319;28;20112;-64
2022/03/08 02:59:25;;;;;;;0.20;0.05;;;;;;;;;;4213164;28;20108;-65
2022/03/08 03:01:26;;;;;;;0.10;0.10;;;;;;;;;;4214415;28;20054;-64
2022/03/08 03:03:27;;;;;;;0.63;0.22;;;;;;;;;;4214167;28;20424;-65
2022/03/08 03:05:28;;;;;;;0.40;0.20;;;;;;;;;;4214211;28;20099;-65
2022/03/08 03:07:29;;;;;;;0.10;0.10;;;;;;;;;;4214343;28;20055;-64
2022/03/08 03:09:31;;;;;;;0.43;0.10;;;;;;;;;;4214463;28;20052;-65
2022/03/08 03:11:32;;;;;;;0.40;0.20;;;;;;;;;;4214195;28;20502;-65
2022/03/08 03:13:34;;;;;;;0.40;0.08;;;;;;;;;;4195941;28;20084;-64
2022/03/08 03:15:35;;;;;;;0.40;0.20;;;;;;;;;;4214482;28;20094;-65
2022/03/08 03:17:36;;;;;;;0.17;0.10;;;;;;;;;;4213938;28;20052;-65
2022/03/08 03:19:36;;;;;;;0.30;0.20;;;;;;;;;;4214041;28;20139;-65
2022/03/08 03:21:37;;;;;;;0.20;0.10;;;;;;;;;;4213767;28;20047;-64
2022/03/08 03:23:38;;;;;;;0.20;0.10;;;;;;;;;;4213557;28;20079;-64
2022/03/08 03:25:39;;;;;;;0.10;0.10;;;;;;;;;;4213889;28;20048;-65
2022/03/08 03:27:40;;;;;;;0.47;0.22;;;;;;;;;;4213820;28;20048;-64
2022/03/08 03:29:41;;;;;;;0.15;0.15;;;;;;;;;;4195891;28;20052;-64
2022/03/08 03:31:42;;;;;;;0.25;0.20;;;;;;;;;;4195379;28;20053;-64
2022/03/08 03:33:44;;;;;;;0.20;0.20;;;;;;;;;;4196108;28;20074;-65
2022/03/08 03:35:45;;;;;;;0.30;0.10;;;;;;;;;;4213800;28;20536;-64
2022/03/08 03:37:46;;;;;;;0.17;0.10;;;;;;;;;;4213534;28;20132;-65
2022/03/08 03:39:47;;;;;;;0.10;0.10;;;;;;;;;;4195685;28;20558;-64
2022/03/08 03:41:48;;;;;;;0.80;0.20;;;;;;;;;;4213356;28;20078;-65
2022/03/08 03:43:49;;;;;;;0.20;0.10;;;;;;;;;;4213587;28;20123;-64
2022/03/08 03:45:50;;;;;;;0.28;0.10;;;;;;;;;;4213570;28;20104;-65
2022/03/08 03:47:51;;;;;;;0.17;0.10;;;;;;;;;;4213244;28;22399;-64
2022/03/08 03:49:52;;;;;;;0.40;0.10;;;;;;;;;;4213436;28;20062;-64
2022/03/08 03:51:53;;;;;;;0.15;0.15;;;;;;;;;;4213582;28;20048;-65
2022/03/08 03:53:54;;;;;;;0.15;0.10;;;;;;;;;;4195183;28;20053;-64
2022/03/08 03:55:55;;;;;;;0.73;0.20;;;;;;;;;;4196996;28;20048;-64
2022/03/08 03:57:56;;;;;;;0.38;0.15;;;;;;;;;;4196816;28;20541;-64
2022/03/08 03:59:57;;;;;;;0.20;0.03;;;;;;;;;;4195547;28;20139;-65
2022/03/08 04:01:58;;;;;;;0.28;0.10;;;;;;;;;;4196178;28;20056;-64
2022/03/08 04:03:59;;;;;;;0.30;0.30;;;;;;;;;;4196511;28;20099;-64
2022/03/08 04:06:00;;;;;;;0.32;0.10;;;;;;;;;;4196627;28;20118;-64
2022/03/08 04:08:01;;;;;;;0.10;0.10;;;;;;;;;;4196321;28;20052;-64
2022/03/08 04:10:06;;;;;;;0.17;0.10;;;;;;;;;;4196833;28;20103;-65
2022/03/08 04:12:07;;;;;;;0.50;0.30;;;;;;;;;;4195299;28;20052;-64
2022/03/08 04:14:08;;;;;;;0.70;0.17;;;;;;;;;;4196441;28;20097;-65
2022/03/08 04:16:10;;;;;;;0.00;0.00;;;;;;;;;;4196488;28;20048;-64
2022/03/08 04:18:11;;;;;;;0.20;0.20;;;;;;;;;;4195938;28;20479;-66
2022/03/08 04:20:12;;;;;;;0.60;0.20;;;;;;;;;;4196772;28;20052;-65
2022/03/08 04:22:13;;;;;;;0.22;0.20;;;;;;;;;;4196551;28;20087;-64
2022/03/08 04:24:14;;;;;;;0.40;0.17;;;;;;;;;;4195547;28;20086;-64
2022/03/08 04:26:15;;;;;;;1.75;0.20;;;;;;;;;;4196423;28;20103;-64
2022/03/08 04:28:16;;;;;;;0.10;0.10;;;;;;;;;;4196540;28;20105;-65
2022/03/08 04:30:17;;;;;;;0.10;0.10;;;;;;;;;;4196688;28;20174;-64
2022/03/08 04:32:18;;;;;;;0.10;0.08;;;;;;;;;;4195153;28;20056;-64
2022/03/08 04:34:19;;;;;;;0.47;0.13;;;;;;;;;;4195822;28;20052;-64
2022/03/08 04:36:20;;;;;;;0.50;0.20;;;;;;;;;;4195415;28;20478;-64
2022/03/08 04:38:21;;;;;;;0.20;0.15;;;;;;;;;;4196648;28;20061;-64
2022/03/08 04:40:21;;;;;;;0.00;0.00;;;;;;;;;;4196528;28;20423;-64
2022/03/08 04:42:23;;;;;;;0.73;0.20;;;;;;;;;;4196139;28;20114;-64
2022/03/08 04:44:24;;;;;;;0.40;0.20;;;;;;;;;;4196301;28;20056;-64
2022/03/08 04:46:24;;;;;;;0.20;0.20;;;;;;;;;;4196473;28;20102;-64
2022/03/08 04:48:25;;;;;;;0.38;0.17;;;;;;;;;;4195667;28;20553;-64
2022/03/08 04:50:26;;;;;;;0.15;0.10;;;;;;;;;;4196229;28;20134;-64
2022/03/08 04:52:27;;;;;;;0.20;0.15;;;;;;;;;;4196482;28;20048;-64
2022/03/08 04:54:28;;;;;;;0.38;0.20;;;;;;;;;;4212817;28;20102;-64
2022/03/08 04:56:29;;;;;;;0.30;0.17;;;;;;;;;;4212905;28;20101;-64
2022/03/08 04:58:30;;;;;;;0.22;0.10;;;;;;;;;;4194776;28;20052;-64
2022/03/08 05:00:32;;;;;;;0.35;0.13;;;;;;;;;;4212708;28;20125;-64
2022/03/08 05:02:33;;;;;;;0.30;0.10;;;;;;;;;;4212660;28;20094;-64
2022/03/08 05:04:34;;;;;;;0.10;0.10;;;;;;;;;;4212894;28;20094;-64
2022/03/08 05:06:34;;;;;;;0.32;0.30;;;;;;;;;;4213050;28;20490;-64
2022/03/08 05:08:35;;;;;;;0.30;0.10;;;;;;;;;;4212587;28;20074;-64
2022/03/08 05:10:36;;;;;;;0.20;0.17;;;;;;;;;;4201019;28;20525;-65
2022/03/08 05:12:38;;;;;;;0.43;0.10;;;;;;;;;;4212495;28;20552;-64
2022/03/08 05:14:39;;;;;;;0.28;0.10;;;;;;;;;;4212624;28;20048;-65
2022/03/08 05:16:40;;;;;;;0.10;0.10;;;;;;;;;;4212462;28;20040;-65
2022/03/08 05:18:40;;;;;;;0.22;0.13;;;;;;;;;;4212463;28;20470;-65
2022/03/08 05:20:41;;;;;;;0.13;0.13;;;;;;;;;;4212556;28;20452;-64
2022/03/08 05:22:42;;;;;;;0.25;0.10;;;;;;;;;;4211072;28;20087;-65
2022/03/08 05:24:43;;;;;;;0.55;0.20;;;;;;;;;;4212819;28;20052;-65
2022/03/08 05:26:44;;;;;;;0.65;0.20;;;;;;;;;;4212398;28;20048;-65
2022/03/08 05:28:46;;;;;;;0.30;0.08;;;;;;;;;;4212511;28;20506;-65
2022/03/08 05:30:47;;;;;;;0.22;0.10;;;;;;;;;;4211489;28;20113;-64
2022/03/08 05:32:48;;;;;;;0.50;0.10;;;;;;;;;;4212445;28;20048;-65
2022/03/08 05:34:49;;;;;;;1.10;0.13;;;;;;;;;;4212547;28;20044;-64
2022/03/08 05:36:50;;;;;;;0.63;0.20;;;;;;;;;;4212253;28;20113;-65
2022/03/08 05:38:51;;;;;;;0.25;0.20;;;;;;;;;;4212249;28;20205;-65
2022/03/08 05:40:52;;;;;;;0.32;0.20;;;;;;;;;;4212708;28;20105;-65
2022/03/08 05:42:53;;;;;;;0.20;0.10;;;;;;;;;;4212508;28;20449;-64
2022/03/08 05:44:54;;;;;;;0.00;0.00;;;;;;;;;;4212764;28;20070;-64
2022/03/08 05:46:55;;;;;;;0.17;0.17;;;;;;;;;;4215155;28;20094;-64
2022/03/08 05:48:56;;;;;;;0.22;0.13;;;;;;;;;;4215324;28;20407;-65
2022/03/08 05:50:57;;;;;;;0.98;0.10;;;;;;;;;;4215486;28;20091;-65
2022/03/08 05:52:57;;;;;;;0.13;0.10;;;;;;;;;;4215104;28;20051;-64
2022/03/08 05:54:58;;;;;;;0.50;0.40;;;;;;;;;;4214157;28;20525;-65
2022/03/08 05:56:59;;;;;;;1.20;0.30;;;;;;;;;;4215512;28;20100;-65
2022/03/08 05:59:00;;;;;;;0.30;0.20;;;;;;;;;;4215424;28;20418;-65
2022/03/08 06:01:01;;;;;;;0.30;0.10;;;;;;;;;;4212247;28;20171;-65
2022/03/08 06:03:02;;;;;;;0.85;0.25;;;;;;;;;;4212876;28;20059;-64
2022/03/08 06:05:03;;;;;;;0.43;0.13;;;;;;;;;;4213338;28;20066;-64
2022/03/08 06:07:04;;;;;;;0.32;0.22;;;;;;;;;;4213112;28;20502;-65
2022/03/08 06:09:05;;;;;;;0.50;0.28;;;;;;;;;;4213448;28;20048;-65
2022/03/08 06:11:06;;;;;;;0.30;0.15;;;;;;;;;;4213329;28;20135;-64
2022/03/08 06:13:07;;;;;;;0.47;0.20;;;;;;;;;;4212688;28;20483;-64
2022/03/08 06:15:08;;;;;;;0.55;0.30;;;;;;;;;;4195194;28;20135;-64
2022/03/08 06:17:09;;;;;;;3.75;0.35;;;;;;;;;;4203537;28;20392;-64
2022/03/08 06:19:10;;;;;;;1.77;0.30;;;;;;;;;;4208462;28;20048;-64
2022/03/08 06:21:11;;;;;;;1.83;0.25;;;;;;;;;;4205837;28;20398;-64
2022/03/08 06:23:12;;;;;;;0.50;0.40;;;;;;;;;;4197582;28;20104;-64
2022/03/08 06:25:13;;;;;;;0.73;0.30;;;;;;;;;;4198490;28;20044;-64
2022/03/08 06:27:14;;;;;;;0.38;0.20;;;;;;;;;;4196308;28;20095;-65
2022/03/08 06:29:15;;;;;;;0.65;0.30;;;;;;;;;;4200163;28;20075;-65
2022/03/08 06:31:16;;;;;;;0.45;0.45;;;;;;;;;;4183072;28;20078;-64
2022/03/08 06:33:17;;;;;;;0.40;0.20;;;;;;;;;;4207214;28;20054;-65
2022/03/08 06:35:19;;;;;;;0.32;0.30;;;;;;;;;;4207873;28;20098;-65
2022/03/08 06:37:20;;;;;;;0.55;0.40;;;;;;;;;;4211289;28;20044;-64
2022/03/08 06:39:21;;;;;;;0.88;0.30;;;;;;;;;;4186555;28;20053;-65
2022/03/08 06:41:22;;;;;;;0.75;0.32;;;;;;;;;;4206202;28;20071;-65
2022/03/08 06:43:23;;;;;;;1.65;0.45;;;;;;;;;;4198075;28;20127;-65
2022/03/08 06:45:24;;;;;;;0.82;0.40;;;;;;;;;;4208611;28;20055;-65
2022/03/08 06:47:25;;;;;;;0.40;0.30;;;;;;;;;;4210696;28;20074;-64
2022/03/08 06:49:26;;;;;;;0.75;0.40;;;;;;;;;;4212048;28;20196;-65
2022/03/08 06:51:26;;;;;;;2.55;0.60;;;;;;;;;;4210906;28;20096;-65
2022/03/08 06:53:27;;;;;;;1.25;0.38;;;;;;;;;;4204644;28;20113;-64
2022/03/08 06:55:28;;;;;;;0.77;0.40;;;;;;;;;;4204860;28;20571;-65
2022/03/08 06:57:30;;;;;;;1.10;0.47;;;;;;;;;;4207454;28;20044;-65
2022/03/08 06:59:31;;;;;;;1.25;0.40;;;;;;;;;;4200713;28;20101;-65
2022/03/08 07:01:31;;;;;;;0.57;0.30;;;;;;;;;;4168580;28;20457;-65
2022/03/08 07:03:32;;;;;;;0.40;0.30;;;;;;;;;;4202560;28;20109;-64
2022/03/08 07:05:33;;;;;;;1.85;0.40;;;;;;;;;;4199692;28;20534;-65
2022/03/08 07:07:34;;;;;;;0.65;0.30;;;;;;;;;;4208692;28;20123;-64
2022/03/08 07:09:35;;;;;;;1.00;0.47;;;;;;;;;;4212343;28;20192;-64
2022/03/08 07:11:36;;;;;;;0.38;0.20;;;;;;;;;;4194249;28;20088;-65
2022/03/08 07:13:37;;;;;;;0.43;0.30;;;;;;;;;;4202782;28;20051;-64
2022/03/08 07:15:38;;;;;;;0.43;0.43;;;;;;;;;;4197312;28;20554;-64
2022/03/08 07:17:40;;;;;;;0.90;0.60;;;;;;;;;;4205071;28;20043;-64
2022/03/08 07:19:41;;;;;;;0.77;0.38;;;;;;;;;;4200467;28;20056;-65
2022/03/08 07:21:43;;;;;;;0.73;0.25;;;;;;;;;;4181599;28;20056;-65
2022/03/08 07:23:44;;;;;;;1.25;0.40;;;;;;;;;;4203211;28;20516;-65
2022/03/08 07:25:44;;;;;;;1.25;0.50;;;;;;;;;;4196218;28;20050;-64
2022/03/08 07:27:46;;;;;;;1.08;0.57;;;;;;;;;;4196501;28;20496;-64
2022/03/08 07:29:47;;;;;;;1.35;0.43;;;;;;;;;;4180996;28;20522;-65
2022/03/08 07:31:49;;;;;;;1.02;0.57;;;;;;;;;;4167293;28;20087;-64
2022/03/08 07:33:51;;;;;;;0.43;0.38;;;;;;;;;;4204950;28;20387;-64
2022/03/08 07:35:52;;;;;;;0.52;0.45;;;;;;;;;;4203740;28;20044;-65
2022/03/08 07:37:53;;;;;;;0.63;0.40;;;;;;;;;;4203891;28;20102;-64
2022/03/08 07:39:55;;;;;;;1.58;0.40;;;;;;;;;;4201080;28;20445;-65
2022/03/08 07:41:55;;;;;;;0.57;0.40;;;;;;;;;;4199765;28;20094;-65
2022/03/08 07:43:58;;;;;;;1.35;0.35;;;;;;;;;;4169610;28;20048;-65
2022/03/08 07:45:59;;;;;;;2.15;0.43;;;;;;;;;;4180736;28;20528;-65
2022/03/08 07:48:00;;;;;;;0.73;0.35;;;;;;;;;;4194167;28;20048;-64
2022/03/08 07:50:03;;;;;;;0.68;0.30;;;;;;;;;;4199000;28;20052;-64
2022/03/08 07:52:04;;;;;;;2.05;0.30;;;;;;;;;;4197576;28;20625;-64
2022/03/08 07:54:05;;;;;;;1.85;0.57;;;;;;;;;;4195583;28;20052;-65
2022/03/08 07:56:06;;;;;;;1.17;0.50;;;;;;;;;;4193433;28;20047;-64
2022/03/08 07:58:12;;;;;;;1.15;0.60;;;;;;;;;;4189154;28;20052;-65
2022/03/08 08:00:14;;;;;;;2.13;0.30;;;;;;;;;;4193228;28;20406;-65
2022/03/08 08:02:15;;;;;;;0.95;0.47;;;;;;;;;;4189215;28;20052;-65
2022/03/08 08:04:15;;;;;;;2.42;0.32;;;;;;;;;;4194552;28;20553;-65
2022/03/08 08:06:16;;;;;;;0.85;0.40;;;;;;;;;;4194459;28;20048;-65
2022/03/08 08:08:17;;;;;;;0.82;0.47;;;;;;;;;;4197634;28;20218;-66
2022/03/08 08:10:18;;;;;;;2.15;0.60;;;;;;;;;;4198315;28;20059;-65
2022/03/08 08:12:19;;;;;;;1.33;0.32;;;;;;;;;;4191875;28;20048;-64
2022/03/08 08:14:20;;;;;;;3.85;0.80;;;;;;;;;;4193390;28;20137;-66
2022/03/08 08:16:23;;;;;;;1.13;0.68;;;;;;;;;;4193419;28;20537;-65
2022/03/08 08:18:24;;;;;;;1.45;0.50;;;;;;;;;;4181452;28;20101;-66
2022/03/08 08:20:25;;;;;;;2.63;0.47;;;;;;;;;;4198947;28;20048;-65
2022/03/08 08:22:25;;;;;;;1.35;0.45;;;;;;;;;;4194645;28;20500;-66
2022/03/08 08:24:26;;;;;;;2.08;0.68;;;;;;;;;;4175587;28;20604;-63
2022/03/08 08:26:27;;;;;;;2.53;0.50;;;;;;;;;;4198634;28;20522;-64
2022/03/08 08:28:28;;;;;;;2.35;0.50;;;;;;;;;;4195994;28;20135;-64
2022/03/08 08:30:30;;;;;;;3.78;1.10;;;;;;;;;;4175146;28;20561;-64
2022/03/08 08:32:31;;;;;;;2.60;0.57;;;;;;;;;;4190470;28;20154;-64
2022/03/08 08:34:32;;;;;;;1.38;0.63;;;;;;;;;;4192944;28;20162;-64
2022/03/08 08:36:33;;;;;;;4.35;0.73;;;;;;;;;;4172002;28;20118;-64
2022/03/08 08:38:34;;;;;;;1.60;0.60;;;;;;;;;;4196245;28;20097;-64
2022/03/08 08:40:36;;;;;;;1.90;0.88;;;;;;;;;;4194477;28;20048;-65
2022/03/08 08:42:37;;;;;;;1.48;0.60;;;;;;;;;;4196419;28;20556;-63
2022/03/08 08:44:38;;;;;;;1.77;0.50;;;;;;;;;;4198105;28;20082;-63
2022/03/08 08:46:39;;;;;;;2.08;0.50;;;;;;;;;;4193887;28;20056;-64
2022/03/08 08:48:40;;;;;;;2.55;0.47;;;;;;;;;;4157631;28;20094;-64
2022/03/08 08:50:41;;;;;;;4.68;0.70;;;;;;;;;;4179329;28;20061;-65
2022/03/08 08:52:42;;;;;;;1.48;0.77;;;;;;;;;;4194256;28;20052;-64
2022/03/08 08:54:43;;;;;;;4.45;0.80;;;;;;;;;;4195326;28;20482;-65
2022/03/08 08:56:44;;;;;;;1.65;0.50;;;;;;;;;;4197235;28;20508;-65
2022/03/08 08:58:45;;;;;;;2.85;0.80;;;;;;;;;;4175352;28;20056;-63
2022/03/08 09:00:46;;;;;;;2.55;0.52;;;;;;;;;;4172045;28;20431;-65
2022/03/08 09:02:48;;;;;;;1.60;0.55;;;;;;;;;;4188322;28;20613;-64
2022/03/08 09:04:49;;;;;;;3.97;0.50;;;;;;;;;;4195877;28;20059;-64
2022/03/08 09:06:50;;;;;;;3.05;0.50;;;;;;;;;;4188968;28;21123;-65
2022/03/08 09:08:51;;;;;;;3.25;0.65;;;;;;;;;;4191050;28;20227;-65
2022/03/08 09:10:53;;;;;;;4.50;0.60;;;;;;;;;;4176784;28;20107;-65
2022/03/08 09:12:54;;;;;;;1.95;0.52;;;;;;;;;;4173812;28;20911;-64
2022/03/08 09:14:55;;;;;;;1.77;0.70;;;;;;;;;;4176594;28;20136;-65
2022/03/08 09:16:56;;;;;;;1.05;0.50;;;;;;;;;;4178934;28;20113;-64
2022/03/08 09:18:57;;;;;;;1.98;0.52;;;;;;;;;;4186389;28;21469;-65
2022/03/08 09:20:58;;;;;;;1.27;0.70;;;;;;;;;;4183812;28;20056;-64
2022/03/08 09:22:59;;;;;;;1.00;0.35;;;;;;;;;;4183556;28;20529;-64
2022/03/08 09:25:00;;;;;;;0.90;0.40;;;;;;;;;;4192962;28;20059;-65
2022/03/08 09:27:02;;;;;;;1.70;0.70;;;;;;;;;;4191770;28;20105;-65
2022/03/08 09:29:03;;;;;;;1.48;1.13;;;;;;;;;;4188059;28;20295;-64
2022/03/08 09:31:04;;;;;;;2.45;0.70;;;;;;;;;;4194137;28;20155;-64
2022/03/08 09:33:05;;;;;;;1.48;0.60;;;;;;;;;;4181924;28;20305;-64
2022/03/08 09:35:07;;;;;;;2.95;0.70;;;;;;;;;;4194419;28;20056;-64
2022/03/08 09:37:08;;;;;;;4.70;0.70;;;;;;;;;;4197343;28;20044;-65
2022/03/08 09:39:10;;;;;;;2.08;0.73;;;;;;;;;;4196961;28;20065;-65
2022/03/08 09:41:11;;;;;;;2.58;0.40;;;;;;;;;;4195336;28;20053;-65
2022/03/08 09:43:13;;;;;;;2.65;0.40;;;;;;;;;;4179355;28;20086;-65
2022/03/08 09:45:15;;;;;;;3.55;0.47;;;;;;;;;;4201000;28;20109;-65
2022/03/08 09:47:16;;;;;;;1.80;0.50;;;;;;;;;;4194742;28;20109;-64
2022/03/08 09:49:17;;;;;;;3.03;0.65;;;;;;;;;;4179061;28;20049;-65
2022/03/08 09:51:19;;;;;;;0.90;0.30;;;;;;;;;;4192668;28;20549;-64
2022/03/08 09:53:20;;;;;;;1.83;0.45;;;;;;;;;;4199018;28;20056;-65
2022/03/08 09:55:23;;;;;;;1.13;0.68;;;;;;;;;;4196005;28;20054;-65
2022/03/08 09:57:25;;;;;;;1.95;0.52;;;;;;;;;;4178482;28;20052;-65
2022/03/08 09:59:29;;;;;;;2.30;0.70;;;;;;;;;;4183224;28;20061;-64
2022/03/08 10:01:30;;;;;;;3.22;0.55;;;;;;;;;;4182236;28;20373;-65
2022/03/08 10:03:35;;;;;;;0.88;0.63;;;;;;;;;;4199026;28;20125;-64
2022/03/08 10:05:43;;;;;;;1.85;0.68;;;;;;;;;;4198731;28;20373;-63
2022/03/08 10:08:01;;;;;;;1.15;0.50;;;;;;;;;;4200342;28;20481;-64
2022/03/08 10:10:02;;;;;;;0.75;0.47;;;;;;;;;;4180516;28;20053;-64
2022/03/08 10:12:13;;;;;;;2.25;0.63;;;;;;;;;;4183538;28;20094;-63
2022/03/08 10:14:31;;;;;;;2.25;0.68;;;;;;;;;;4207166;28;20052;-64
2022/03/08 10:16:42;;;;;;;1.20;0.50;;;;;;;;;;4200776;28;20048;-65
2022/03/08 10:18:43;;;;;;;4.75;0.88;;;;;;;;;;4205592;28;20375;-64
2022/03/08 10:20:44;;;;;;;0.50;0.45;;;;;;;;;;4198072;28;20128;-64
2022/03/08 10:22:45;;;;;;;2.45;0.47;;;;;;;;;;4199620;28;21613;-64
2022/03/08 10:24:45;;;;;;;1.63;0.70;;;;;;;;;;4197515;28;20082;-64
2022/03/08 10:26:48;;;;;;;1.63;0.68;;;;;;;;;;4206886;28;20112;-64
2022/03/08 10:28:50;;;;;;;2.72;0.38;;;;;;;;;;4191978;28;20052;-63
2022/03/08 10:30:52;;;;;;;1.02;0.45;;;;;;;;;;4182403;28;20048;-66
2022/03/08 10:32:56;;;;;;;0.65;0.43;;;;;;;;;;4200880;28;20456;-63
2022/03/08 10:34:59;;;;;;;1.35;0.55;;;;;;;;;;4196833;28;20101;-65
2022/03/08 10:37:01;;;;;;;0.60;0.40;;;;;;;;;;4200999;28;20160;-66
2022/03/08 10:39:02;;;;;;;1.13;0.50;;;;;;;;;;4199605;28;20101;-67
2022/03/08 10:41:16;;;;;;;0.82;0.50;;;;;;;;;;4199349;28;20104;-64
2022/03/08 10:43:17;;;;;;;0.90;0.40;;;;;;;;;;4185644;28;20114;-63
2022/03/08 10:45:18;;;;;;;1.10;0.43;;;;;;;;;;4200467;28;20532;-66
2022/03/08 10:47:19;;;;;;;1.33;0.50;;;;;;;;;;4203191;28;20044;-66
2022/03/08 10:49:20;;;;;;;1.05;0.40;;;;;;;;;;4164701;28;20055;-67
2022/03/08 10:51:21;;;;;;;0.65;0.35;;;;;;;;;;4203370;28;20143;-66
2022/03/08 10:53:26;;;;;;;1.75;0.50;;;;;;;;;;4197736;28;20040;-66
2022/03/08 10:55:31;;;;;;;2.05;0.40;;;;;;;;;;4181936;28;20053;-67
2022/03/08 10:57:33;;;;;;;0.40;0.30;;;;;;;;;;4186231;28;20048;-66
2022/03/08 10:59:34;;;;;;;1.05;0.40;;;;;;;;;;4202702;28;20451;-66
2022/03/08 11:01:35;;;;;;;0.65;0.32;;;;;;;;;;4200812;28;20092;-67
2022/03/08 11:03:35;;;;;;;1.42;0.40;;;;;;;;;;4182146;28;20099;-66
2022/03/08 11:05:38;;;;;;;0.98;0.38;;;;;;;;;;4206138;28;20126;-65
2022/03/08 11:07:39;;;;;;;3.67;0.73;;;;;;;;;;4206325;28;20135;-66
2022/03/08 11:09:41;;;;;;;1.05;0.30;;;;;;;;;;4204557;28;20179;-65
2022/03/08 11:11:43;;;;;;;0.30;0.25;;;;;;;;;;4205988;28;20074;-66
2022/03/08 11:13:47;;;;;;;1.38;0.30;;;;;;;;;;4207631;28;20044;-66
2022/03/08 11:15:48;;;;;;;1.42;0.40;;;;;;;;;;4207045;28;20052;-66
2022/03/08 11:17:50;;;;;;;1.15;0.50;;;;;;;;;;4206126;28;20384;-66
2022/03/08 11:19:51;;;;;;;1.30;0.20;;;;;;;;;;4205682;28;20047;-65
2022/03/08 11:21:54;;;;;;;0.35;0.28;;;;;;;;;;4206413;28;20085;-66
2022/03/08 11:23:56;;;;;;;0.75;0.20;;;;;;;;;;4207026;28;20054;-66
2022/03/08 11:25:57;;;;;;;1.65;0.55;;;;;;;;;;4207638;28;20048;-66
2022/03/08 11:27:59;;;;;;;2.38;0.35;;;;;;;;;;4210189;28;20540;-66
2022/03/08 11:30:00;;;;;;;1.55;0.30;;;;;;;;;;4209449;28;20065;-67
2022/03/08 11:32:04;;;;;;;0.43;0.20;;;;;;;;;;4187106;28;20056;-66
2022/03/08 11:34:24;;;;;;;1.13;0.40;;;;;;;;;;4187921;28;20045;-65
2022/03/08 11:36:25;;;;;;;0.63;0.30;;;;;;;;;;4206877;28;20044;-66
2022/03/08 11:38:26;;;;;;;0.98;0.38;;;;;;;;;;4209009;28;20185;-66
2022/03/08 11:40:27;;;;;;;0.38;0.22;;;;;;;;;;4207987;28;20040;-66
2022/03/08 11:42:30;;;;;;;1.05;0.32;;;;;;;;;;4189611;28;20058;-66
2022/03/08 11:44:34;;;;;;;1.58;0.40;;;;;;;;;;4187174;28;20060;-66
2022/03/08 11:46:35;;;;;;;1.40;0.65;;;;;;;;;;4210677;28;20437;-65
2022/03/08 11:48:48;;;;;;;1.58;0.40;;;;;;;;;;4205919;28;20048;-66
2022/03/08 11:50:49;;;;;;;1.17;0.30;;;;;;;;;;4205275;28;20052;-66
2022/03/08 11:52:51;;;;;;;2.33;0.30;;;;;;;;;;4194415;28;20221;-66
2022/03/08 11:54:53;;;;;;;1.00;0.30;;;;;;;;;;4186425;28;20101;-66
2022/03/08 11:56:54;;;;;;;0.85;0.35;;;;;;;;;;4203033;28;20039;-66
2022/03/08 11:59:07;;;;;;;0.60;0.20;;;;;;;;;;4200656;28;20333;-66
2022/03/08 12:01:08;;;;;;;0.77;0.35;;;;;;;;;;4199875;28;20063;-67
2022/03/08 12:03:32;;;;;;;1.83;0.45;;;;;;;;;;4200310;28;20052;-66
2022/03/08 12:05:39;;;;;;;0.52;0.30;;;;;;;;;;4190301;28;20105;-66
2022/03/08 12:07:40;;;;;;;0.80;0.35;;;;;;;;;;4201219;28;20113;-66
2022/03/08 12:09:41;;;;;;;0.32;0.20;;;;;;;;;;4195561;28;20237;-66